Hartford, Connecticut
Current Conditions -  °F | °C
As of 9:53 PM on Tuesday 25 Nov 2014 (Local Time) from KHFD Reporting Station
Clear Clear  
Wind Chill: 40°   Ceiling: Unl
Heat Index: 44°   Visibility: 10mi
Dew Point: 31°   Wind: 7mph
Humidity: 60%   Direction: 190°S
Pressure: 30.1"   Gusts: NA
Location:  41.76°N, 72.67°W
Report Text: KHFD 260253Z 19006KT 10SM CLR 07/M01 A3010 RMK AO2 SLP194 T00671006 51025
Loading
Personal Weather Stations






























Interactive Weather Map New forecast layout! Learn more

10-Day Weather Forecast

Advertisements
Track Severe Weather on mobile